Time;durP1;ratioP1;P1;durP2;ratioP2;P2;SDS_P1;SDS_P2;PMS_P1;PMS_P2;Temp;Humidity;BMP_temperature;BMP_pressure;BME280_temperature;BME280_humidity;BME280_pressure;Samples;Min_cycle;Max_cycle;Signal;HPM_P1;HPM_P2
2021/05/07 00:01:07;;;;;;;6.90;5.32;;;3.70;99.90;;;;;;5072064;28;20020;-74
2021/05/07 00:03:33;;;;;;;7.45;6.65;;;3.70;99.90;;;;;;5071844;28;20396;-74
2021/05/07 00:06:03;;;;;;;6.40;5.45;;;3.60;99.90;;;;;;5071293;28;20025;-74
2021/05/07 00:08:31;;;;;;;8.88;6.43;;;3.60;99.90;;;;;;5071884;28;20078;-74
2021/05/07 00:11:02;;;;;;;8.57;6.78;;;3.50;99.90;;;;;;5071812;28;20110;-74
2021/05/07 00:13:28;;;;;;;9.13;6.43;;;3.50;99.90;;;;;;5072049;28;20043;-74
2021/05/07 00:15:54;;;;;;;6.78;6.07;;;3.50;99.90;;;;;;5072284;28;20021;-74
2021/05/07 00:18:19;;;;;;;6.75;5.22;;;3.50;99.90;;;;;;5070958;28;20399;-74
2021/05/07 00:20:45;;;;;;;7.80;6.47;;;3.50;99.90;;;;;;5072111;28;20024;-75
2021/05/07 00:23:11;;;;;;;9.45;6.63;;;3.50;99.90;;;;;;5071838;28;20047;-74
2021/05/07 00:25:37;;;;;;;7.25;6.55;;;3.50;99.90;;;;;;5071604;28;20021;-74
2021/05/07 00:28:05;;;;;;;8.13;6.75;;;3.50;99.90;;;;;;5072147;28;20093;-74
2021/05/07 00:30:30;;;;;;;9.27;7.15;;;3.50;99.90;;;;;;5072138;28;20017;-74
2021/05/07 00:32:56;;;;;;;12.15;6.75;;;3.50;99.90;;;;;;5075475;28;20032;-74
2021/05/07 00:35:22;;;;;;;7.13;6.43;;;3.60;99.90;;;;;;5061549;28;20422;-74
2021/05/07 00:37:48;;;;;;;11.73;6.53;;;3.60;99.90;;;;;;5075916;28;20044;-74
2021/05/07 00:40:14;;;;;;;8.35;6.25;;;3.60;99.90;;;;;;5074777;28;20024;-73
2021/05/07 00:42:40;;;;;;;7.32;6.47;;;3.60;99.90;;;;;;5075670;28;20033;-75
2021/05/07 00:45:09;;;;;;;6.88;5.72;;;3.70;99.90;;;;;;5075822;28;20384;-73
2021/05/07 00:47:46;;;;;;;7.72;6.32;;;3.80;99.90;;;;;;5074680;28;20025;-73
2021/05/07 00:50:12;;;;;;;8.77;6.05;;;3.80;99.90;;;;;;5075449;28;20028;-74
2021/05/07 00:52:38;;;;;;;7.20;6.03;;;4.10;99.90;;;;;;5075389;28;20066;-73
2021/05/07 00:55:05;;;;;;;6.90;5.95;;;3.70;99.90;;;;;;5075049;28;20103;-73
2021/05/07 00:57:33;;;;;;;11.85;6.07;;;3.70;99.90;;;;;;5074847;28;20056;-73
2021/05/07 00:59:58;;;;;;;12.85;6.55;;;3.60;99.90;;;;;;5075542;28;20035;-75
2021/05/07 01:02:24;;;;;;;8.18;6.13;;;3.60;99.90;;;;;;5074402;28;20473;-74
2021/05/07 01:04:53;;;;;;;8.73;6.22;;;3.60;99.90;;;;;;5075493;28;20082;-74
2021/05/07 01:07:19;;;;;;;7.85;6.30;;;3.70;99.90;;;;;;5074142;28;20033;-74
2021/05/07 01:09:49;;;;;;;6.82;6.22;;;3.70;99.90;;;;;;5075184;28;20025;-73
2021/05/07 01:12:15;;;;;;;7.22;6.53;;;3.80;99.90;;;;;;5074838;28;20127;-73
2021/05/07 01:14:41;;;;;;;9.82;7.30;;;3.80;99.90;;;;;;5074284;28;20078;-74
2021/05/07 01:17:06;;;;;;;7.00;5.93;;;3.90;99.90;;;;;;5075076;28;20419;-74
2021/05/07 01:19:32;;;;;;;7.60;6.75;;;4.00;99.90;;;;;;5074695;28;20246;-74
2021/05/07 01:21:57;;;;;;;7.93;7.10;;;4.00;99.90;;;;;;5074790;28;20042;-73
2021/05/07 01:24:26;;;;;;;10.32;6.65;;;4.00;99.90;;;;;;5075054;28;20064;-75
2021/05/07 01:26:53;;;;;;;7.03;6.32;;;4.10;99.90;;;;;;5061522;28;20488;-74
2021/05/07 01:29:19;;;;;;;9.25;6.72;;;4.10;99.90;;;;;;5074071;28;20032;-75
2021/05/07 01:31:46;;;;;;;8.18;6.88;;;4.20;99.90;;;;;;5074503;28;20027;-74
2021/05/07 01:34:12;;;;;;;11.88;7.20;;;4.30;99.90;;;;;;5074664;28;20460;-74
2021/05/07 01:36:37;;;;;;;9.40;6.97;;;4.30;99.90;;;;;;5074246;28;20034;-74
2021/05/07 01:39:04;;;;;;;7.80;7.07;;;4.40;99.90;;;;;;5074961;28;20024;-74
2021/05/07 01:41:30;;;;;;;13.35;7.10;;;4.40;99.90;;;;;;5074406;28;20032;-74
2021/05/07 01:43:57;;;;;;;14.38;8.48;;;4.50;99.90;;;;;;5073888;28;20044;-75
2021/05/07 01:46:23;;;;;;;8.48;7.65;;;4.50;99.90;;;;;;5074155;28;20024;-74
2021/05/07 01:48:49;;;;;;;10.18;7.97;;;4.50;99.90;;;;;;5074143;28;20037;-74
2021/05/07 01:51:15;;;;;;;9.88;7.85;;;4.60;99.90;;;;;;5073512;28;20535;-74
2021/05/07 01:53:40;;;;;;;10.02;8.23;;;4.60;99.90;;;;;;5073978;28;20127;-73
2021/05/07 01:56:06;;;;;;;12.18;8.48;;;4.60;99.90;;;;;;5074250;28;20035;-74
2021/05/07 01:58:31;;;;;;;9.52;8.00;;;4.70;99.90;;;;;;5073374;28;20461;-74
2021/05/07 02:00:57;;;;;;;10.48;7.30;;;4.70;99.90;;;;;;5073454;28;20099;-73
2021/05/07 02:03:23;;;;;;;11.40;8.05;;;4.80;99.90;;;;;;5073722;28;20028;-76
2021/05/07 02:05:49;;;;;;;12.18;8.55;;;4.90;99.90;;;;;;5073162;28;20380;-75
2021/05/07 02:08:15;;;;;;;11.65;8.05;;;4.90;99.90;;;;;;5073714;28;20111;-74
2021/05/07 02:10:40;;;;;;;8.77;7.82;;;4.90;99.90;;;;;;5073381;28;20460;-74
2021/05/07 02:13:08;;;;;;;10.00;8.57;;;4.90;99.90;;;;;;5073755;28;20036;-74
2021/05/07 02:15:37;;;;;;;9.90;8.13;;;5.00;99.90;;;;;;5073732;28;20024;-75
2021/05/07 02:18:04;;;;;;;8.50;7.63;;;5.00;99.90;;;;;;5073016;28;20443;-74
2021/05/07 02:20:30;;;;;;;10.25;7.97;;;5.00;99.90;;;;;;5073753;28;20461;-74
2021/05/07 02:22:57;;;;;;;10.20;8.35;;;5.00;99.90;;;;;;5074100;28;20023;-74
2021/05/07 02:25:24;;;;;;;10.48;8.88;;;5.00;99.90;;;;;;5072939;28;20025;-75
2021/05/07 02:27:52;;;;;;;14.90;9.18;;;5.10;99.90;;;;;;5074438;28;20074;-73
2021/05/07 02:30:20;;;;;;;10.40;8.00;;;5.10;99.90;;;;;;5073180;28;20024;-76
2021/05/07 02:32:46;;;;;;;13.85;9.23;;;5.10;99.90;;;;;;5072687;28;20041;-75
2021/05/07 02:35:12;;;;;;;8.27;7.35;;;5.10;99.90;;;;;;5073401;28;20449;-74
2021/05/07 02:37:38;;;;;;;9.80;8.13;;;5.10;99.90;;;;;;5073617;28;20108;-74
2021/05/07 02:40:06;;;;;;;10.85;8.65;;;5.10;99.90;;;;;;5073135;28;20024;-74
2021/05/07 02:42:32;;;;;;;11.00;7.72;;;5.10;99.90;;;;;;5073125;28;20044;-74
2021/05/07 02:44:58;;;;;;;7.97;6.22;;;5.20;99.90;;;;;;5073430;28;20032;-74
2021/05/07 02:47:23;;;;;;;5.03;3.78;;;5.10;99.90;;;;;;5072321;28;20017;-74
2021/05/07 02:49:49;;;;;;;7.82;3.78;;;5.10;99.90;;;;;;5073429;28;20284;-74
2021/05/07 02:52:15;;;;;;;6.07;2.63;;;4.80;99.90;;;;;;5072930;28;20020;-75
2021/05/07 02:54:40;;;;;;;7.50;4.00;;;4.70;99.90;;;;;;5071955;28;20408;-74
2021/05/07 02:57:06;;;;;;;5.40;2.00;;;4.60;99.90;;;;;;5073162;28;20020;-74
2021/05/07 02:59:32;;;;;;;1.65;1.45;;;4.50;99.90;;;;;;5073317;28;20177;-74
2021/05/07 03:01:58;;;;;;;3.15;1.73;;;4.40;99.90;;;;;;5072865;28;20031;-74
2021/05/07 03:04:24;;;;;;;5.57;2.13;;;4.30;99.90;;;;;;5072862;28;20016;-74
2021/05/07 03:06:50;;;;;;;1.73;1.60;;;4.20;99.90;;;;;;5073208;28;20106;-74
2021/05/07 03:09:16;;;;;;;3.10;1.70;;;4.10;99.90;;;;;;5072795;28;20024;-74
2021/05/07 03:11:43;;;;;;;5.38;1.80;;;4.00;99.90;;;;;;5073266;28;20085;-74
2021/05/07 03:14:09;;;;;;;5.18;1.83;;;3.90;99.90;;;;;;5072084;28;20032;-74
2021/05/07 03:16:35;;;;;;;3.05;1.30;;;3.70;99.90;;;;;;5072355;28;20016;-76
2021/05/07 03:19:01;;;;;;;4.25;1.42;;;3.50;99.90;;;;;;5073070;28;20078;-76
2021/05/07 03:21:27;;;;;;;2.92;1.70;;;3.40;99.90;;;;;;5071604;28;20103;-76
2021/05/07 03:23:53;;;;;;;2.05;1.40;;;3.30;99.90;;;;;;5072813;28;20107;-77
2021/05/07 03:26:19;;;;;;;7.32;1.90;;;3.20;99.90;;;;;;5072181;28;20108;-77
2021/05/07 03:28:44;;;;;;;1.83;1.73;;;3.20;99.90;;;;;;5071864;28;20440;-76
2021/05/07 03:31:10;;;;;;;5.05;1.45;;;3.20;99.90;;;;;;5072887;28;20027;-77
2021/05/07 03:33:37;;;;;;;4.25;1.98;;;3.10;99.90;;;;;;5072177;28;20143;-75
2021/05/07 03:36:03;;;;;;;3.20;1.38;;;3.10;99.90;;;;;;5072230;28;20025;-76
2021/05/07 03:38:29;;;;;;;2.83;2.05;;;3.10;99.90;;;;;;5072524;28;20031;-76
2021/05/07 03:40:54;;;;;;;3.28;1.60;;;3.00;99.90;;;;;;5072664;28;20017;-76
2021/05/07 03:43:20;;;;;;;6.22;1.77;;;3.10;99.90;;;;;;5071193;28;20045;-75
2021/05/07 03:45:46;;;;;;;2.88;1.70;;;2.90;99.90;;;;;;5072719;28;20078;-74
2021/05/07 03:48:19;;;;;;;1.90;1.70;;;2.90;99.90;;;;;;5072998;28;20028;-75
2021/05/07 03:50:50;;;;;;;5.13;1.90;;;2.80;99.90;;;;;;5072138;28;20024;-76
2021/05/07 03:53:17;;;;;;;2.33;1.80;;;2.80;99.90;;;;;;5072109;28;20032;-74
2021/05/07 03:55:43;;;;;;;3.10;1.80;;;2.70;99.90;;;;;;5072191;28;20078;-75
2021/05/07 03:58:09;;;;;;;3.80;1.80;;;2.60;99.90;;;;;;5071665;28;20101;-77
2021/05/07 04:00:35;;;;;;;2.70;1.67;;;2.60;99.90;;;;;;5072102;28;20048;-76
2021/05/07 04:03:02;;;;;;;3.95;1.88;;;2.60;99.90;;;;;;5071971;28;20140;-75
2021/05/07 04:05:27;;;;;;;3.22;1.67;;;2.60;99.90;;;;;;5071081;28;20028;-76
2021/05/07 04:08:12;;;;;;;4.82;1.83;;;2.60;99.90;;;;;;5071763;28;20021;-74
2021/05/07 04:10:42;;;;;;;2.72;1.80;;;2.70;99.90;;;;;;5071515;28;20025;-74
2021/05/07 04:15:52;;;;;;;2.70;1.92;;;2.80;99.90;;;;;;5072217;28;20062;-76
2021/05/07 04:18:18;;;;;;;2.95;2.00;;;2.90;99.90;;;;;;5070815;28;20032;-77
2021/05/07 04:20:43;;;;;;;1.67;1.58;;;2.90;99.90;;;;;;5071753;28;20027;-76
2021/05/07 04:23:09;;;;;;;2.42;1.83;;;3.00;99.90;;;;;;5070332;28;20365;-76
2021/05/07 04:25:34;;;;;;;2.10;1.70;;;3.00;99.90;;;;;;5070874;28;20052;-76
2021/05/07 04:28:00;;;;;;;2.15;2.00;;;3.00;99.90;;;;;;5071821;28;20032;-76
2021/05/07 04:30:25;;;;;;;6.60;3.45;;;3.00;99.90;;;;;;5071210;28;20021;-76
2021/05/07 04:32:51;;;;;;;2.58;2.00;;;3.10;99.90;;;;;;5071040;28;20039;-76
2021/05/07 04:35:16;;;;;;;4.25;2.40;;;3.20;99.90;;;;;;5071106;28;20070;-76
2021/05/07 04:37:42;;;;;;;2.47;2.28;;;3.20;99.90;;;;;;5071576;28;20031;-76
2021/05/07 04:40:08;;;;;;;4.60;2.22;;;3.30;99.90;;;;;;5071127;28;20069;-77
2021/05/07 04:42:34;;;;;;;5.82;2.47;;;3.30;99.90;;;;;;5071194;28;20059;-75
2021/05/07 04:44:59;;;;;;;4.80;2.60;;;3.30;99.90;;;;;;5071885;28;20599;-75
2021/05/07 04:47:25;;;;;;;2.45;2.17;;;3.40;99.90;;;;;;5070754;28;20052;-75
2021/05/07 04:49:50;;;;;;;1.90;1.60;;;3.40;99.90;;;;;;5071376;28;20024;-75
2021/05/07 04:52:16;;;;;;;2.47;1.75;;;3.50;99.90;;;;;;5071057;28;20024;-75
2021/05/07 04:54:41;;;;;;;2.22;2.05;;;3.50;99.90;;;;;;5070663;28;20170;-75
2021/05/07 04:57:07;;;;;;;4.43;2.25;;;3.40;99.90;;;;;;5071647;28;20025;-77
2021/05/07 04:59:33;;;;;;;3.47;1.92;;;3.50;99.90;;;;;;5070510;28;20056;-77
2021/05/07 05:01:58;;;;;;;2.00;1.77;;;3.40;99.90;;;;;;5071300;28;20051;-77
2021/05/07 05:04:24;;;;;;;2.78;1.88;;;3.40;99.90;;;;;;5071363;28;20082;-77
2021/05/07 05:06:49;;;;;;;1.90;1.65;;;3.40;99.90;;;;;;5071179;28;20017;-77
2021/05/07 05:09:15;;;;;;;2.67;1.75;;;3.30;99.90;;;;;;5071091;28;20388;-76
2021/05/07 05:11:40;;;;;;;1.80;1.70;;;3.30;99.90;;;;;;5071732;28;20349;-77
2021/05/07 05:14:07;;;;;;;1.52;1.42;;;3.20;99.90;;;;;;5070890;28;20036;-77
2021/05/07 05:16:33;;;;;;;1.95;1.40;;;3.10;99.90;;;;;;5071171;28;20237;-75
2021/05/07 05:18:58;;;;;;;3.17;2.15;;;3.00;99.90;;;;;;5075119;28;20024;-76
2021/05/07 05:21:24;;;;;;;3.90;2.00;;;3.00;99.90;;;;;;5074358;28;20089;-77
2021/05/07 05:23:50;;;;;;;5.20;2.20;;;3.00;99.90;;;;;;5075101;28;20065;-77
2021/05/07 05:26:16;;;;;;;2.50;1.88;;;2.90;99.90;;;;;;5074604;28;20427;-76
2021/05/07 05:28:42;;;;;;;2.60;2.05;;;3.00;99.90;;;;;;5074813;28;20046;-75
2021/05/07 05:31:08;;;;;;;3.40;2.28;;;3.10;99.90;;;;;;5075064;28;20103;-77
2021/05/07 05:33:33;;;;;;;3.58;2.05;;;3.20;99.90;;;;;;5074372;28;20029;-77
2021/05/07 05:35:59;;;;;;;3.35;1.95;;;3.30;99.90;;;;;;5074292;28;20431;-76
2021/05/07 05:38:26;;;;;;;3.97;2.67;;;3.30;99.90;;;;;;5073685;28;20506;-78
2021/05/07 05:40:52;;;;;;;4.43;2.63;;;3.20;99.90;;;;;;5074451;28;20094;-76
2021/05/07 05:43:18;;;;;;;2.20;2.00;;;3.30;99.90;;;;;;5073382;28;20097;-76
2021/05/07 05:45:44;;;;;;;2.90;2.70;;;3.30;99.90;;;;;;5074365;28;20133;-78
2021/05/07 05:48:15;;;;;;;2.80;2.60;;;3.30;99.90;;;;;;5073609;28;20381;-76
2021/05/07 05:50:42;;;;;;;3.38;3.08;;;3.30;99.90;;;;;;5072887;28;20020;-76
2021/05/07 05:53:08;;;;;;;3.08;2.85;;;3.40;99.90;;;;;;5073773;28;20040;-76
2021/05/07 05:55:36;;;;;;;3.72;3.42;;;3.50;99.90;;;;;;5072474;28;20040;-76
2021/05/07 05:58:02;;;;;;;5.57;2.90;;;3.50;99.90;;;;;;5072793;28;20110;-76
2021/05/07 06:00:28;;;;;;;3.67;3.22;;;3.60;99.90;;;;;;5072926;28;20595;-76
2021/05/07 06:02:53;;;;;;;4.03;3.65;;;3.70;99.90;;;;;;5072706;28;20119;-76
2021/05/07 06:05:20;;;;;;;4.47;3.30;;;3.70;99.90;;;;;;5073491;28;20105;-75
2021/05/07 06:07:46;;;;;;;4.03;3.15;;;3.80;99.90;;;;;;5073286;28;20020;-76
2021/05/07 06:10:13;;;;;;;4.82;3.90;;;3.80;99.90;;;;;;5072954;28;20031;-75
2021/05/07 06:12:40;;;;;;;4.20;3.90;;;4.00;99.90;;;;;;5072707;28;20016;-76
2021/05/07 06:15:10;;;;;;;5.22;4.72;;;4.10;99.90;;;;;;5073194;28;20024;-76
2021/05/07 06:17:36;;;;;;;6.43;4.30;;;4.20;99.90;;;;;;5072393;28;20023;-76
2021/05/07 06:20:04;;;;;;;4.55;4.15;;;4.30;99.90;;;;;;5073372;28;20024;-77
2021/05/07 06:22:36;;;;;;;3.90;3.60;;;4.40;99.90;;;;;;5073254;28;20461;-77
2021/05/07 06:25:06;;;;;;;4.07;3.70;;;4.40;99.90;;;;;;5072493;28;20032;-77
2021/05/07 06:27:32;;;;;;;6.20;4.28;;;4.50;99.90;;;;;;5073135;28;20029;-77
2021/05/07 06:29:57;;;;;;;4.63;4.22;;;4.60;99.90;;;;;;5071426;28;20499;-77
2021/05/07 06:32:23;;;;;;;4.68;4.07;;;4.70;99.90;;;;;;5071970;28;20020;-78
2021/05/07 06:34:48;;;;;;;5.78;4.50;;;4.90;99.90;;;;;;5072677;28;20036;-78
2021/05/07 06:37:14;;;;;;;6.20;4.78;;;5.20;99.90;;;;;;5073608;28;20048;-78
2021/05/07 06:39:40;;;;;;;5.97;5.38;;;5.40;99.90;;;;;;5073545;28;20110;-78
2021/05/07 06:42:06;;;;;;;6.43;5.20;;;5.60;99.90;;;;;;5073496;28;20073;-76
2021/05/07 06:44:32;;;;;;;7.05;5.13;;;5.70;99.90;;;;;;5072214;28;20394;-78
2021/05/07 06:46:58;;;;;;;5.97;5.38;;;5.90;99.90;;;;;;5070996;28;20020;-79
2021/05/07 06:49:24;;;;;;;7.13;5.68;;;5.90;99.90;;;;;;5071906;28;20033;-79
2021/05/07 06:51:50;;;;;;;5.50;5.00;;;6.00;99.90;;;;;;5072419;28;20150;-77
2021/05/07 06:54:16;;;;;;;5.07;4.68;;;6.00;99.90;;;;;;5071112;28;20476;-78
2021/05/07 06:56:41;;;;;;;6.93;5.03;;;6.00;99.90;;;;;;5072357;28;20032;-78
2021/05/07 06:59:07;;;;;;;6.72;4.63;;;5.90;99.90;;;;;;5072266;28;20029;-77
2021/05/07 07:01:34;;;;;;;6.40;5.30;;;5.90;99.90;;;;;;5072549;28;20016;-79
2021/05/07 07:04:03;;;;;;;11.32;5.60;;;5.90;99.90;;;;;;5070756;28;20029;-80
2021/05/07 07:06:29;;;;;;;7.32;5.90;;;6.00;99.90;;;;;;5071710;28;20017;-76
2021/05/07 07:08:55;;;;;;;7.75;5.28;;;6.10;99.90;;;;;;5072614;28;20036;-79
2021/05/07 07:11:20;;;;;;;5.97;5.38;;;6.20;99.90;;;;;;5072215;28;20028;-79
2021/05/07 07:13:47;;;;;;;7.35;6.25;;;6.30;99.90;;;;;;5071632;28;20037;-76
2021/05/07 07:16:14;;;;;;;6.95;6.22;;;6.40;99.90;;;;;;5073197;28;20052;-78
2021/05/07 07:18:40;;;;;;;6.93;6.22;;;6.70;99.90;;;;;;5073296;28;20032;-79
2021/05/07 07:21:06;;;;;;;6.65;5.93;;;6.80;99.90;;;;;;5067723;28;20442;-77
2021/05/07 07:23:31;;;;;;;8.05;5.50;;;6.90;99.90;;;;;;5071624;28;20032;-78
2021/05/07 07:25:57;;;;;;;7.72;5.97;;;6.90;99.90;;;;;;5071893;28;20024;-76
2021/05/07 07:28:22;;;;;;;7.32;5.75;;;6.90;99.90;;;;;;5070247;28;20032;-78
2021/05/07 07:30:48;;;;;;;6.60;5.90;;;6.80;99.90;;;;;;5072429;28;20078;-77
2021/05/07 07:33:14;;;;;;;8.13;7.32;;;6.70;99.90;;;;;;5072416;28;20093;-78
2021/05/07 07:35:40;;;;;;;9.13;7.70;;;6.70;99.90;;;;;;5072374;28;20048;-80
2021/05/07 07:38:05;;;;;;;9.30;6.65;;;6.70;99.90;;;;;;5072638;28;20116;-77
2021/05/07 07:40:31;;;;;;;8.13;7.43;;;6.80;99.90;;;;;;5072081;28;20017;-76
2021/05/07 07:42:57;;;;;;;9.27;7.72;;;6.70;99.90;;;;;;5071486;28;20485;-76
2021/05/07 07:45:22;;;;;;;9.77;7.35;;;6.80;99.90;;;;;;5072184;28;20380;-76
2021/05/07 07:47:48;;;;;;;9.70;8.70;;;6.90;99.90;;;;;;5073636;28;20020;-74
2021/05/07 07:50:14;;;;;;;10.05;8.35;;;7.00;99.90;;;;;;5071955;28;20024;-75
2021/05/07 07:52:40;;;;;;;10.15;7.57;;;7.10;99.90;;;;;;5073166;28;20102;-75
2021/05/07 07:55:09;;;;;;;7.82;7.03;;;7.70;99.90;;;;;;5073803;28;20032;-79
2021/05/07 07:57:35;;;;;;;9.23;7.40;;;7.00;99.90;;;;;;5073050;28;20027;-78
2021/05/07 08:00:01;;;;;;;13.82;8.13;;;7.10;99.90;;;;;;5073158;28;20036;-78
2021/05/07 08:02:27;;;;;;;9.75;8.70;;;7.10;99.90;;;;;;5071626;28;20043;-78
2021/05/07 08:04:55;;;;;;;11.13;8.70;;;7.20;99.90;;;;;;5072301;28;20096;-78
2021/05/07 08:07:24;;;;;;;11.60;8.15;;;7.40;99.90;;;;;;5071142;28;20028;-76
2021/05/07 08:09:50;;;;;;;8.80;5.80;;;7.50;99.90;;;;;;5058701;28;20071;-75
2021/05/07 08:12:15;;;;;;;7.80;5.32;;;7.70;99.90;;;;;;5072709;28;20508;-75
2021/05/07 08:14:41;;;;;;;8.35;5.03;;;7.80;99.90;;;;;;5073741;28;20030;-75
2021/05/07 08:17:08;;;;;;;5.70;4.60;;;8.00;99.90;;;;;;5075318;28;20473;-75
2021/05/07 08:19:34;;;;;;;5.65;4.88;;;8.00;99.90;;;;;;5073997;28;20398;-75
2021/05/07 08:22:00;;;;;;;9.90;5.43;;;8.10;99.90;;;;;;5072556;28;20063;-75
2021/05/07 08:24:26;;;;;;;3.33;3.03;;;8.20;99.90;;;;;;5070062;28;20064;-75
2021/05/07 08:26:52;;;;;;;5.00;3.80;;;8.30;99.90;;;;;;5070705;28;20024;-77
2021/05/07 08:29:18;;;;;;;4.75;3.10;;;8.30;99.90;;;;;;5071496;28;20051;-75
2021/05/07 08:31:45;;;;;;;5.32;4.00;;;8.00;99.90;;;;;;5070760;28;20025;-77
2021/05/07 08:34:12;;;;;;;7.40;3.80;;;7.90;99.90;;;;;;5071232;28;20072;-76
2021/05/07 08:36:38;;;;;;;5.32;3.72;;;7.90;99.90;;;;;;5071808;28;20368;-76
2021/05/07 08:39:04;;;;;;;4.40;3.42;;;8.00;99.90;;;;;;5071262;28;20033;-76
2021/05/07 08:41:35;;;;;;;7.47;3.90;;;8.10;99.90;;;;;;5071676;28;20016;-76
2021/05/07 08:44:00;;;;;;;4.82;3.15;;;8.30;99.90;;;;;;5072075;28;20439;-77
2021/05/07 08:46:26;;;;;;;4.82;3.38;;;8.60;99.90;;;;;;5070472;28;20058;-77
2021/05/07 08:48:56;;;;;;;7.38;3.85;;;8.60;99.90;;;;;;5071662;28;20487;-77
2021/05/07 08:51:24;;;;;;;4.80;4.05;;;8.50;99.90;;;;;;5071396;28;20021;-78
2021/05/07 08:53:50;;;;;;;4.68;3.50;;;8.40;99.90;;;;;;5073299;28;20502;-77
2021/05/07 08:56:15;;;;;;;4.45;3.97;;;8.40;99.90;;;;;;5074600;28;20046;-76
2021/05/07 08:58:41;;;;;;;7.25;3.90;;;8.40;99.90;;;;;;5074305;28;20123;-76
2021/05/07 09:01:06;;;;;;;5.85;4.38;;;8.50;99.90;;;;;;5074579;28;20032;-76
2021/05/07 09:03:45;;;;;;;4.50;3.83;;;8.60;99.90;;;;;;5074176;28;20109;-80
2021/05/07 09:06:18;;;;;;;5.28;3.75;;;8.80;99.90;;;;;;5075004;28;20032;-78
2021/05/07 09:08:45;;;;;;;6.00;3.85;;;8.90;99.90;;;;;;5075669;28;20107;-77
2021/05/07 09:11:11;;;;;;;5.82;3.97;;;9.10;99.90;;;;;;5075725;28;20228;-79
2021/05/07 09:13:37;;;;;;;7.15;4.43;;;9.30;99.90;;;;;;5074745;28;20071;-78
2021/05/07 09:16:07;;;;;;;7.43;4.72;;;9.40;99.90;;;;;;5075792;28;20082;-77
2021/05/07 09:18:47;;;;;;;5.65;4.68;;;9.30;99.90;;;;;;5075629;28;20052;-79
2021/05/07 09:21:16;;;;;;;8.15;4.68;;;9.40;99.90;;;;;;5074409;28;20028;-78
2021/05/07 09:23:44;;;;;;;6.75;5.00;;;9.30;99.90;;;;;;5074988;28;20043;-79
2021/05/07 09:26:12;;;;;;;4.57;3.97;;;9.30;99.90;;;;;;5075379;28;20051;-78
2021/05/07 09:28:38;;;;;;;5.53;4.53;;;9.20;99.90;;;;;;5075199;28;20017;-80
2021/05/07 09:31:12;;;;;;;7.03;4.55;;;9.30;99.90;;;;;;5083243;28;20033;-73
2021/05/07 09:33:42;;;;;;;4.20;3.80;;;9.50;99.90;;;;;;5076881;28;20032;-77
2021/05/07 09:36:09;;;;;;;5.63;4.38;;;9.60;99.90;;;;;;5075653;28;20024;-80
2021/05/07 09:38:35;;;;;;;5.65;3.95;;;9.50;99.90;;;;;;5075259;28;20050;-79
2021/05/07 09:41:10;;;;;;;7.20;3.97;;;9.30;99.90;;;;;;5074156;28;20327;-79
2021/05/07 09:43:36;;;;;;;4.68;4.28;;;9.40;99.90;;;;;;5073748;28;20098;-77
2021/05/07 09:46:01;;;;;;;8.05;4.05;;;9.50;99.90;;;;;;5074736;28;20064;-79
2021/05/07 09:51:14;;;;;;;6.97;4.25;;;9.80;99.90;;;;;;5021037;28;20133;-77
2021/05/07 09:53:41;;;;;;;6.95;4.50;;;9.90;99.90;;;;;;5039802;28;20065;-77
2021/05/07 09:56:19;;;;;;;4.55;4.03;;;9.80;99.90;;;;;;5039976;28;20036;-79
2021/05/07 09:58:45;;;;;;;4.45;4.05;;;9.50;99.90;;;;;;5035271;28;20036;-80
2021/05/07 10:01:11;;;;;;;4.43;3.53;;;9.50;99.90;;;;;;5032499;28;20370;-79
2021/05/07 10:03:37;;;;;;;4.97;4.18;;;9.60;99.90;;;;;;5036024;28;20064;-79
2021/05/07 10:06:04;;;;;;;7.13;4.53;;;9.90;99.90;;;;;;5040024;28;20540;-77
2021/05/07 10:08:43;;;;;;;8.55;3.80;;;10.10;99.90;;;;;;5060505;22;20434;-80
2021/05/07 10:11:10;;;;;;;5.00;4.15;;;10.30;99.90;;;;;;5091249;28;20066;-81
2021/05/07 10:13:37;;;;;;;5.93;3.63;;;10.60;99.90;;;;;;5092747;28;20039;-81
2021/05/07 10:16:03;;;;;;;7.03;4.43;;;10.70;99.90;;;;;;5092413;28;20457;-80
2021/05/07 10:18:32;;;;;;;4.47;3.33;;;10.80;99.90;;;;;;5092527;28;20527;-78
2021/05/07 10:21:03;;;;;;;5.55;3.47;;;10.70;99.90;;;;;;5093355;28;20054;-81
2021/05/07 10:23:29;;;;;;;7.55;3.42;;;10.60;99.90;;;;;;5091800;28;20039;-80
2021/05/07 10:26:00;;;;;;;3.65;3.30;;;10.60;99.90;;;;;;5093504;28;20399;-79
2021/05/07 10:28:28;;;;;;;3.63;3.03;;;10.70;99.90;;;;;;5092390;28;20042;-80
2021/05/07 10:31:15;;;;;;;3.92;3.13;;;10.70;99.90;;;;;;5091665;28;20062;-80
2021/05/07 10:33:59;;;;;;;6.20;3.90;;;10.70;99.90;;;;;;5092223;28;20055;-81
2021/05/07 10:36:42;;;;;;;3.28;2.88;;;10.80;99.90;;;;;;5092896;28;20020;-80
2021/05/07 10:39:27;;;;;;;3.63;3.15;;;10.90;99.90;;;;;;5091834;28;20023;-79
2021/05/07 10:42:13;;;;;;;5.57;3.70;;;10.90;99.90;;;;;;5093029;28;20093;-79
2021/05/07 10:44:43;;;;;;;3.42;2.80;;;11.10;99.90;;;;;;5086933;28;20047;-79
2021/05/07 10:47:11;;;;;;;4.53;3.55;;;11.30;99.90;;;;;;5093033;28;20101;-79
2021/05/07 10:49:42;;;;;;;5.13;3.38;;;11.30;99.90;;;;;;5092787;28;20115;-80
2021/05/07 10:52:09;;;;;;;3.72;2.33;;;11.30;99.90;;;;;;5090922;28;20028;-78
2021/05/07 10:54:43;;;;;;;3.60;2.97;;;11.10;99.80;;;;;;5093241;28;20117;-80
2021/05/07 10:57:27;;;;;;;3.65;2.53;;;11.10;99.90;;;;;;5092625;28;20040;-79
2021/05/07 10:59:57;;;;;;;3.97;2.70;;;11.20;98.80;;;;;;5088981;28;20024;-79
2021/05/07 11:02:24;;;;;;;4.45;2.03;;;11.10;99.10;;;;;;5091514;28;20024;-79
2021/05/07 11:04:50;;;;;;;5.13;2.55;;;11.10;96.30;;;;;;5093543;28;20388;-78
2021/05/07 11:07:30;;;;;;;5.20;2.75;;;11.20;97.20;;;;;;5091074;28;20089;-77
2021/05/07 11:10:10;;;;;;;2.47;2.00;;;11.30;95.50;;;;;;5090975;28;20040;-78
2021/05/07 11:12:37;;;;;;;2.40;2.13;;;11.30;94.00;;;;;;5088261;28;20218;-80
2021/05/07 11:15:05;;;;;;;2.90;1.90;;;11.40;94.50;;;;;;5090755;28;20853;-80
2021/05/07 11:17:30;;;;;;;3.30;3.00;;;11.40;96.40;;;;;;5094425;28;20102;-80
2021/05/07 11:19:56;;;;;;;3.42;2.88;;;11.60;96.60;;;;;;5092343;28;20481;-78
2021/05/07 11:22:26;;;;;;;4.50;3.05;;;11.70;98.10;;;;;;5091995;28;20020;-79
2021/05/07 11:24:52;;;;;;;7.20;3.08;;;11.70;97.10;;;;;;5091515;28;20016;-79
2021/05/07 11:27:36;;;;;;;3.15;2.85;;;11.70;97.40;;;;;;5090750;28;20020;-79
2021/05/07 11:30:04;;;;;;;3.83;3.47;;;11.70;97.90;;;;;;5092449;28;20469;-81
2021/05/07 11:32:31;;;;;;;5.53;3.80;;;11.90;97.80;;;;;;5091740;28;20111;-79
2021/05/07 11:35:02;;;;;;;6.22;3.72;;;12.10;98.60;;;;;;5090896;28;20036;-80
2021/05/07 11:37:29;;;;;;;11.07;4.10;;;12.30;99.30;;;;;;5092560;28;20383;-79
2021/05/07 11:40:16;;;;;;;4.40;3.97;;;12.40;99.90;;;;;;5091481;28;20558;-79
2021/05/07 11:42:43;;;;;;;5.40;4.25;;;12.30;98.90;;;;;;5088571;28;20097;-79
2021/05/07 11:45:10;;;;;;;13.20;3.78;;;12.20;98.20;;;;;;5090010;28;20039;-80
2021/05/07 11:47:38;;;;;;;5.78;3.60;;;12.00;99.00;;;;;;5093708;28;20050;-80
2021/05/07 11:52:45;;;;;;;5.60;4.35;;;11.90;99.90;;;;;;5096403;22;20052;-78
2021/05/07 11:55:17;;;;;;;5.05;4.50;;;12.10;99.90;;;;;;5094242;28;20032;-78
2021/05/07 11:57:43;;;;;;;4.70;3.90;;;12.30;99.90;;;;;;5091540;28;20468;-79
2021/05/07 12:00:09;;;;;;;6.18;4.90;;;12.30;99.90;;;;;;5092443;28;20020;-82
2021/05/07 12:02:37;;;;;;;7.45;4.63;;;12.60;99.90;;;;;;5090241;28;20036;-83
2021/05/07 12:05:03;;;;;;;10.07;4.82;;;12.70;99.90;;;;;;5091545;28;20056;-82
2021/05/07 12:07:33;;;;;;;4.68;4.28;;;12.90;99.90;;;;;;5090813;28;20089;-83
2021/05/07 12:10:01;;;;;;;6.28;4.55;;;12.90;99.90;;;;;;5088915;28;20089;-83
2021/05/07 12:12:28;;;;;;;10.07;4.57;;;13.10;99.90;;;;;;5085043;28;20032;-83
2021/05/07 12:15:10;;;;;;;10.00;4.43;;;12.90;99.90;;;;;;5092526;28;20085;-83
2021/05/07 12:17:44;;;;;;;8.95;4.57;;;12.80;99.90;;;;;;5090177;28;20020;-82
2021/05/07 12:20:15;;;;;;;5.35;4.40;;;13.00;99.90;;;;;;5091973;28;20052;-83
2021/05/07 12:22:41;;;;;;;6.15;4.43;;;13.10;99.00;;;;;;5091998;28;20028;-82
2021/05/07 12:25:07;;;;;;;8.55;4.75;;;13.00;97.70;;;;;;5092440;28;20345;-79
2021/05/07 12:27:32;;;;;;;7.07;4.88;;;13.20;98.60;;;;;;5095427;28;20035;-79
2021/05/07 12:29:58;;;;;;;7.25;4.85;;;13.40;98.30;;;;;;5096370;28;20115;-80
2021/05/07 12:32:24;;;;;;;5.00;3.95;;;13.50;99.40;;;;;;5097391;28;20020;-80
2021/05/07 12:34:58;;;;;;;5.00;3.85;;;13.60;93.90;;;;;;5096781;28;20062;-80
2021/05/07 12:37:24;;;;;;;10.40;4.80;;;13.40;94.50;;;;;;5093976;28;20452;-79
2021/05/07 12:39:49;;;;;;;5.82;5.07;;;13.50;96.50;;;;;;5078726;28;20073;-81
2021/05/07 12:42:15;;;;;;;7.25;4.07;;;13.40;96.60;;;;;;5096163;28;20062;-80
2021/05/07 12:44:40;;;;;;;5.35;3.63;;;13.40;94.30;;;;;;5092746;28;20020;-80
2021/05/07 12:47:06;;;;;;;4.38;3.63;;;13.40;93.70;;;;;;5096521;28;20460;-80
2021/05/07 12:49:31;;;;;;;6.13;4.35;;;13.40;93.00;;;;;;5096247;28;20476;-81
2021/05/07 12:52:01;;;;;;;4.03;3.67;;;13.40;95.60;;;;;;5095837;28;20063;-81
2021/05/07 12:54:26;;;;;;;5.78;4.55;;;13.40;93.10;;;;;;5096207;28;20028;-82
2021/05/07 12:56:52;;;;;;;5.75;4.13;;;13.50;96.40;;;;;;5096441;28;20361;-81
2021/05/07 12:59:18;;;;;;;4.75;4.35;;;13.60;92.90;;;;;;5094708;28;20032;-81
2021/05/07 13:01:44;;;;;;;4.43;4.00;;;13.70;92.80;;;;;;5096220;28;20065;-82